Time;durP1;ratioP1;P1;durP2;ratioP2;P2;SDS_P1;SDS_P2;PMS_P1;PMS_P2;Temp;Humidity;BMP_temperature;BMP_pressure;BME280_temperature;BME280_humidity;BME280_pressure;Samples;Min_cycle;Max_cycle;Signal;HPM_P1;HPM_P2
2022/12/29 00:01:35;;;;;;;1.58;1.48;;;11.50;99.90;;;;;;5011524;28;20045;-44
2022/12/29 00:04:00;;;;;;;2.72;1.55;;;11.50;99.90;;;;;;5012537;28;20465;-40
2022/12/29 00:06:27;;;;;;;1.75;1.55;;;11.50;99.90;;;;;;5012943;28;20037;-45
2022/12/29 00:08:52;;;;;;;1.92;1.15;;;11.50;99.90;;;;;;5012372;28;20512;-44
2022/12/29 00:11:22;;;;;;;1.95;1.45;;;11.60;99.90;;;;;;5012725;28;20069;-61
2022/12/29 00:16:33;;;;;;;2.38;1.33;;;11.60;99.90;;;;;;5002245;28;20069;-46
2022/12/29 00:19:00;;;;;;;2.13;1.27;;;11.70;99.90;;;;;;5011933;28;20088;-45
2022/12/29 00:36:02;;;;;;;1.80;1.20;;;11.70;99.90;;;;;;5010844;28;20041;-45
2022/12/29 00:44:06;;;;;;;2.13;1.35;;;11.80;99.90;;;;;;5012146;28;20044;-45
2022/12/29 00:46:36;;;;;;;1.50;1.08;;;11.80;99.90;;;;;;5013330;28;20025;-46
2022/12/29 00:51:47;;;;;;;4.32;1.42;;;11.80;99.90;;;;;;5011870;28;20449;-41
2022/12/29 00:54:13;;;;;;;3.25;0.90;;;11.80;99.90;;;;;;5010670;28;20496;-43
2022/12/29 00:56:39;;;;;;;1.05;0.95;;;11.80;99.90;;;;;;5012231;28;20486;-42
2022/12/29 00:59:07;;;;;;;1.10;0.90;;;11.80;99.90;;;;;;5011462;28;20068;-39
2022/12/29 01:01:33;;;;;;;2.97;1.20;;;11.80;99.90;;;;;;5012073;28;20553;-44
2022/12/29 01:03:58;;;;;;;1.27;0.90;;;11.80;99.90;;;;;;5012174;28;20470;-44
2022/12/29 01:06:24;;;;;;;1.38;1.00;;;11.90;99.90;;;;;;5013201;28;20100;-45
2022/12/29 01:10:09;;;;;;;0.50;0.50;;;11.90;99.90;;;;;;5010609;28;20038;-44
2022/12/29 01:11:40;;;;;;;1.33;0.90;;;11.80;99.90;;;;;;5010861;28;20021;-43
2022/12/29 01:14:06;;;;;;;5.00;1.00;;;11.80;99.90;;;;;;5010768;28;20116;-44
2022/12/29 01:16:33;;;;;;;3.42;0.80;;;11.80;99.90;;;;;;5009554;28;20046;-45
2022/12/29 01:18:58;;;;;;;3.38;0.80;;;11.60;99.90;;;;;;5010555;28;20022;-43
2022/12/29 01:21:24;;;;;;;1.70;0.80;;;11.40;99.90;;;;;;5009648;28;20109;-43
2022/12/29 01:23:50;;;;;;;4.55;0.82;;;11.30;99.90;;;;;;5012151;28;20026;-41
2022/12/29 01:26:17;;;;;;;1.98;0.98;;;11.20;99.90;;;;;;5012948;28;20034;-46
2022/12/29 01:28:42;;;;;;;0.80;0.77;;;11.10;99.90;;;;;;5012148;28;20041;-42
2022/12/29 01:31:13;;;;;;;1.10;1.00;;;11.00;99.90;;;;;;5011835;28;20026;-39
2022/12/29 01:33:39;;;;;;;1.40;1.30;;;11.00;99.90;;;;;;5011236;28;20025;-38
2022/12/29 01:36:11;;;;;;;3.28;1.25;;;11.00;99.90;;;;;;5009975;28;20038;-39
2022/12/29 01:38:37;;;;;;;3.83;1.00;;;11.00;99.90;;;;;;5009242;28;20105;-41
2022/12/29 01:41:04;;;;;;;0.73;0.73;;;10.90;99.90;;;;;;5011987;28;20741;-42
2022/12/29 01:43:47;;;;;;;1.10;0.98;;;10.90;99.90;;;;;;5012722;28;20034;-36
2022/12/29 01:46:23;;;;;;;2.00;1.25;;;10.80;99.90;;;;;;5012316;28;20026;-38
2022/12/29 01:48:54;;;;;;;1.35;1.08;;;10.80;99.90;;;;;;5010485;28;20030;-41
2022/12/29 01:51:22;;;;;;;2.95;1.33;;;10.80;99.90;;;;;;5011470;28;20040;-44
2022/12/29 01:53:48;;;;;;;1.48;1.15;;;10.80;99.90;;;;;;5011223;28;20484;-40
2022/12/29 01:56:17;;;;;;;1.17;1.08;;;10.70;99.90;;;;;;5011475;28;20036;-41
2022/12/29 01:58:46;;;;;;;1.50;1.30;;;10.80;99.90;;;;;;5012850;28;20530;-39
2022/12/29 02:01:12;;;;;;;1.27;0.90;;;10.80;99.90;;;;;;5012632;28;20030;-44
2022/12/29 02:03:38;;;;;;;3.97;1.08;;;10.90;99.90;;;;;;5001620;28;20037;-40
2022/12/29 02:06:20;;;;;;;1.85;1.30;;;10.80;99.90;;;;;;5011276;28;20117;-41
2022/12/29 02:08:47;;;;;;;2.20;1.50;;;10.80;99.90;;;;;;5013381;28;20038;-40
2022/12/29 02:11:13;;;;;;;1.70;0.98;;;10.80;99.90;;;;;;5016649;28;20359;-41
2022/12/29 02:13:39;;;;;;;1.40;1.13;;;10.90;99.90;;;;;;5014438;28;20052;-43
2022/12/29 02:16:24;;;;;;;3.33;1.25;;;10.90;99.90;;;;;;5015956;28;20137;-39
2022/12/29 02:19:01;;;;;;;1.77;1.15;;;11.00;99.90;;;;;;5014460;28;20084;-40
2022/12/29 02:21:33;;;;;;;2.05;1.23;;;11.00;99.90;;;;;;5015458;28;20072;-42
2022/12/29 02:24:06;;;;;;;2.08;1.27;;;11.00;99.90;;;;;;5014658;28;20055;-40
2022/12/29 02:26:43;;;;;;;0.88;0.77;;;11.00;99.90;;;;;;5015549;28;20041;-41
2022/12/29 02:29:18;;;;;;;0.90;0.75;;;11.00;99.90;;;;;;5015195;28;20084;-41
2022/12/29 02:31:49;;;;;;;2.45;0.90;;;11.10;99.90;;;;;;5014135;28;20026;-42
2022/12/29 02:34:36;;;;;;;3.10;0.80;;;11.10;99.90;;;;;;5002517;28;20375;-40
2022/12/29 02:37:17;;;;;;;2.72;0.80;;;11.10;99.90;;;;;;5004838;28;20120;-41
2022/12/29 02:40:15;;;;;;;2.30;1.23;;;11.10;99.90;;;;;;5011552;28;20493;-42
2022/12/29 02:42:59;;;;;;;2.03;0.73;;;11.10;99.90;;;;;;5014875;28;20679;-42
2022/12/29 02:45:43;;;;;;;3.20;0.50;;;11.20;99.90;;;;;;5014425;28;20501;-43
2022/12/29 02:48:32;;;;;;;0.65;0.50;;;11.10;99.90;;;;;;5013349;28;20057;-41
2022/12/29 02:51:07;;;;;;;2.42;0.40;;;11.10;99.90;;;;;;5013997;28;20565;-59
2022/12/29 02:56:19;;;;;;;3.75;0.70;;;11.10;99.90;;;;;;5001330;28;20140;-50
2022/12/29 02:58:45;;;;;;;3.05;0.70;;;11.10;99.90;;;;;;5013067;28;20062;-45
2022/12/29 03:01:10;;;;;;;2.45;0.35;;;11.10;99.90;;;;;;5013647;28;20026;-62
2022/12/29 03:03:45;;;;;;;1.35;0.35;;;11.00;99.90;;;;;;5013851;28;20482;-41
2022/12/29 03:06:17;;;;;;;5.25;1.20;;;11.00;99.90;;;;;;5008126;28;20030;-45
2022/12/29 03:09:02;;;;;;;0.85;0.55;;;11.00;99.90;;;;;;5010172;28;20466;-42
2022/12/29 03:17:45;;;;;;;0.43;0.20;;;10.90;99.90;;;;;;5007723;28;20604;-44
2022/12/29 03:20:43;;;;;;;3.65;0.50;;;10.80;99.90;;;;;;5014122;28;20536;-45
2022/12/29 03:23:10;;;;;;;2.75;0.60;;;10.80;99.90;;;;;;5004387;28;20053;-41
2022/12/29 03:25:41;;;;;;;3.47;0.30;;;10.80;99.90;;;;;;5014280;28;20061;-41
2022/12/29 03:28:11;;;;;;;1.55;0.38;;;10.70;99.90;;;;;;5011734;28;20034;-41
2022/12/29 03:30:39;;;;;;;5.88;0.60;;;10.70;99.90;;;;;;5014051;28;20526;-42
2022/12/29 03:33:07;;;;;;;;;;;10.70;99.90;;;;;;5012212;28;20041;-44
2022/12/29 03:35:37;;;;;;;0.98;0.40;;;10.70;99.90;;;;;;5014604;28;19936;-43
2022/12/29 03:38:37;;;;;;;4.28;0.40;;;10.70;99.90;;;;;;5011650;28;20549;-40
2022/12/29 03:41:07;;;;;;;1.52;0.50;;;10.70;99.90;;;;;;4995259;28;20557;-41
2022/12/29 03:43:33;;;;;;;2.30;0.95;;;10.70;99.90;;;;;;5012484;28;20502;-45
2022/12/29 03:45:59;;;;;;;0.77;0.40;;;10.70;99.90;;;;;;5011800;28;20092;-44
2022/12/29 03:48:24;;;;;;;2.08;0.30;;;10.70;99.90;;;;;;5011712;28;20397;-41
2022/12/29 03:50:50;;;;;;;1.00;0.22;;;10.70;99.90;;;;;;5014374;28;20030;-46
2022/12/29 03:53:16;;;;;;;8.18;0.98;;;10.70;99.90;;;;;;5013469;28;20025;-41
2022/12/29 03:55:41;;;;;;;3.88;0.50;;;10.70;99.90;;;;;;5014368;28;20034;-45
2022/12/29 03:58:07;;;;;;;3.40;0.43;;;10.70;99.90;;;;;;5013373;28;20036;-42
2022/12/29 04:00:33;;;;;;;4.88;0.70;;;10.60;99.90;;;;;;5013638;28;20116;-43
2022/12/29 04:02:58;;;;;;;3.58;0.60;;;10.70;99.90;;;;;;5013223;28;20026;-41
2022/12/29 04:05:24;;;;;;;0.60;0.60;;;10.70;99.90;;;;;;5014450;28;20164;-42
2022/12/29 04:07:50;;;;;;;2.03;0.50;;;10.70;99.90;;;;;;5013446;28;20029;-42
2022/12/29 04:10:15;;;;;;;2.30;0.73;;;10.60;99.90;;;;;;5013303;28;20022;-42
2022/12/29 04:12:45;;;;;;;7.38;1.27;;;10.60;99.90;;;;;;5014144;28;20025;-41
2022/12/29 04:15:11;;;;;;;2.58;0.98;;;10.60;99.90;;;;;;5013182;28;20111;-36
2022/12/29 04:17:37;;;;;;;1.77;0.70;;;10.60;99.90;;;;;;5012794;28;20077;-37
2022/12/29 04:22:49;;;;;;;0.82;0.50;;;10.60;99.90;;;;;;5011322;28;20049;-35
2022/12/29 04:25:14;;;;;;;2.10;0.40;;;10.70;99.90;;;;;;5011987;28;20519;-38
2022/12/29 04:27:40;;;;;;;8.43;1.15;;;10.70;99.90;;;;;;5011295;28;20022;-37
2022/12/29 04:30:06;;;;;;;8.27;0.82;;;10.70;99.90;;;;;;5012645;28;20040;-36
2022/12/29 04:32:32;;;;;;;5.18;0.80;;;10.70;99.90;;;;;;5010201;28;20481;-38
2022/12/29 04:34:57;;;;;;;5.35;1.55;;;10.70;99.90;;;;;;5012511;28;20088;-48
2022/12/29 04:37:23;;;;;;;5.60;1.05;;;10.80;99.90;;;;;;5013662;28;20026;-47
2022/12/29 04:39:49;;;;;;;5.93;0.70;;;10.80;99.90;;;;;;5009050;28;20104;-48
2022/12/29 04:42:14;;;;;;;3.47;0.77;;;10.80;99.90;;;;;;5000700;28;20117;-46
2022/12/29 04:44:40;;;;;;;6.00;0.55;;;10.80;99.90;;;;;;5012198;28;20496;-48
2022/12/29 04:47:05;;;;;;;5.05;1.00;;;10.80;99.90;;;;;;5012854;28;20115;-40
2022/12/29 04:49:31;;;;;;;5.55;1.27;;;10.80;99.90;;;;;;5010362;28;20025;-37
2022/12/29 04:51:57;;;;;;;5.95;0.98;;;10.80;99.90;;;;;;5012732;28;20030;-41
2022/12/29 04:54:25;;;;;;;2.83;0.55;;;10.70;99.90;;;;;;5011301;28;20080;-39
2022/12/29 04:56:51;;;;;;;3.45;0.60;;;10.60;99.90;;;;;;5012710;28;20386;-42
2022/12/29 04:59:16;;;;;;;2.85;0.60;;;10.50;99.90;;;;;;5011842;28;20108;-40
2022/12/29 05:01:42;;;;;;;4.93;0.60;;;10.40;99.90;;;;;;5008167;28;20117;-38
2022/12/29 05:04:07;;;;;;;3.75;0.88;;;10.40;99.90;;;;;;5010415;28;20036;-36
2022/12/29 05:06:33;;;;;;;8.30;1.38;;;10.40;99.90;;;;;;5013041;28;20037;-35
2022/12/29 05:08:59;;;;;;;7.18;0.80;;;10.30;99.90;;;;;;5011242;28;20029;-36
2022/12/29 05:11:24;;;;;;;6.82;1.45;;;10.30;99.90;;;;;;5009914;28;20095;-39
2022/12/29 05:13:50;;;;;;;11.45;1.88;;;10.20;99.90;;;;;;5010656;28;20057;-36
2022/12/29 05:16:15;;;;;;;8.02;1.85;;;10.30;99.90;;;;;;5008362;28;20046;-38
2022/12/29 05:18:41;;;;;;;10.32;1.55;;;10.30;99.90;;;;;;5012046;28;20033;-40
2022/12/29 05:21:06;;;;;;;2.90;1.10;;;10.30;99.90;;;;;;5012406;28;20029;-37
2022/12/29 05:23:32;;;;;;;9.65;1.15;;;10.40;99.90;;;;;;5011522;28;20022;-38
2022/12/29 05:25:58;;;;;;;4.35;0.90;;;10.50;99.90;;;;;;5009962;28;20125;-37
2022/12/29 05:28:23;;;;;;;5.72;1.00;;;10.40;99.90;;;;;;5009779;28;20048;-35
2022/12/29 05:30:50;;;;;;;1.20;0.77;;;10.40;99.90;;;;;;5013237;28;20034;-37
2022/12/29 05:33:19;;;;;;;7.60;1.13;;;10.40;99.90;;;;;;5005584;28;20368;-36
2022/12/29 05:35:45;;;;;;;12.35;1.20;;;10.30;99.90;;;;;;5008825;28;20042;-32
2022/12/29 05:38:11;;;;;;;5.63;0.77;;;10.30;99.90;;;;;;5011240;28;20505;-37
2022/12/29 05:40:36;;;;;;;7.25;1.13;;;10.30;99.90;;;;;;5010886;28;20018;-35
2022/12/29 05:43:02;;;;;;;15.50;1.30;;;10.20;99.90;;;;;;5011996;28;20033;-40
2022/12/29 05:45:28;;;;;;;2.80;0.70;;;10.20;99.90;;;;;;5013444;28;20026;-36
2022/12/29 05:47:53;;;;;;;4.97;1.45;;;10.20;99.90;;;;;;5013577;28;20501;-39
2022/12/29 05:50:19;;;;;;;5.57;1.40;;;10.20;99.90;;;;;;5014085;28;20112;-39
2022/12/29 05:52:45;;;;;;;5.18;1.33;;;10.20;99.90;;;;;;5016609;28;20539;-35
2022/12/29 05:55:11;;;;;;;9.25;0.93;;;10.30;99.90;;;;;;5015748;28;20014;-38
2022/12/29 05:57:37;;;;;;;7.32;1.33;;;10.20;99.90;;;;;;5016520;28;20378;-40
2022/12/29 06:00:07;;;;;;;3.83;0.88;;;10.30;99.90;;;;;;5014492;28;20032;-34
2022/12/29 06:02:33;;;;;;;11.75;1.08;;;10.20;99.90;;;;;;5015825;28;20033;-34
2022/12/29 06:04:58;;;;;;;10.60;1.13;;;10.10;99.90;;;;;;5015440;28;20026;-34
2022/12/29 06:07:24;;;;;;;15.70;1.08;;;10.10;99.90;;;;;;5016271;28;20519;-34
2022/12/29 06:09:49;;;;;;;10.55;1.10;;;10.10;99.90;;;;;;5015518;28;20034;-39
2022/12/29 06:12:15;;;;;;;28.15;2.30;;;10.00;99.90;;;;;;5015244;28;20030;-42
2022/12/29 06:14:41;;;;;;;6.18;1.40;;;10.10;99.90;;;;;;5016358;28;20507;-36
2022/12/29 06:17:07;;;;;;;7.15;1.10;;;10.10;99.90;;;;;;5015977;28;20041;-37
2022/12/29 06:19:33;;;;;;;13.07;1.42;;;10.10;99.90;;;;;;5015420;28;20466;-41
2022/12/29 06:21:58;;;;;;;15.23;1.75;;;10.10;99.90;;;;;;5013466;28;20029;-39
2022/12/29 06:24:24;;;;;;;11.07;1.90;;;10.10;99.90;;;;;;5014011;28;20022;-46
2022/12/29 06:26:50;;;;;;;7.97;1.45;;;10.00;99.90;;;;;;5014335;28;20030;-44
2022/12/29 06:29:16;;;;;;;11.95;1.92;;;10.00;99.90;;;;;;5013650;28;20034;-48
2022/12/29 06:31:45;;;;;;;11.13;2.00;;;10.00;99.90;;;;;;5015286;28;20058;-41
2022/12/29 06:34:12;;;;;;;5.35;1.25;;;10.00;99.90;;;;;;5014088;28;20033;-45
2022/12/29 06:36:37;;;;;;;7.40;1.52;;;9.90;99.90;;;;;;5011375;28;20030;-44
2022/12/29 06:39:03;;;;;;;6.15;1.80;;;10.00;99.90;;;;;;5008626;28;20049;-45
2022/12/29 06:41:29;;;;;;;9.18;1.10;;;9.90;99.90;;;;;;5014881;28;20072;-50
2022/12/29 06:43:54;;;;;;;15.07;2.28;;;9.90;99.90;;;;;;5014576;28;20037;-34
2022/12/29 06:46:20;;;;;;;3.90;0.90;;;9.90;99.90;;;;;;5003837;28;20029;-37
2022/12/29 06:48:45;;;;;;;7.30;1.13;;;9.90;99.90;;;;;;5010313;28;20057;-39
2022/12/29 06:51:11;;;;;;;5.85;1.70;;;9.90;99.90;;;;;;5012628;28;20061;-38
2022/12/29 06:53:37;;;;;;;5.97;1.27;;;9.90;99.90;;;;;;5013172;28;20430;-37
2022/12/29 06:56:02;;;;;;;10.25;1.45;;;10.00;99.90;;;;;;5014193;28;20034;-34
2022/12/29 06:58:28;;;;;;;6.10;1.45;;;10.00;99.90;;;;;;5012739;28;20359;-35
2022/12/29 07:00:54;;;;;;;10.38;1.20;;;10.00;99.90;;;;;;5013089;28;20034;-34
2022/12/29 07:06:04;;;;;;;13.75;1.85;;;10.00;99.90;;;;;;5013287;28;20502;-38
2022/12/29 07:08:30;;;;;;;9.05;1.63;;;9.90;99.90;;;;;;5011868;28;20537;-38
2022/12/29 07:10:55;;;;;;;13.45;1.42;;;9.80;99.90;;;;;;5012402;28;20104;-41
2022/12/29 07:13:21;;;;;;;13.50;1.80;;;9.70;99.90;;;;;;5014112;28;20497;-34
2022/12/29 07:15:46;;;;;;;17.48;1.83;;;9.70;99.90;;;;;;5011956;28;20099;-41
2022/12/29 07:18:12;;;;;;;6.70;0.90;;;9.60;99.90;;;;;;5014226;28;20034;-32
2022/12/29 07:20:38;;;;;;;6.43;0.98;;;9.50;99.90;;;;;;5012266;28;20104;-39
2022/12/29 07:23:03;;;;;;;5.47;1.23;;;9.50;99.90;;;;;;5009262;28;20087;-38
2022/12/29 07:25:29;;;;;;;7.25;1.33;;;9.40;99.90;;;;;;5002526;28;20080;-42
2022/12/29 07:27:54;;;;;;;7.13;1.77;;;9.30;99.90;;;;;;5013291;28;20029;-42
2022/12/29 07:30:20;;;;;;;7.70;0.90;;;9.40;99.90;;;;;;5014277;28;20060;-47
2022/12/29 07:32:46;;;;;;;8.50;1.10;;;9.40;99.90;;;;;;5011314;28;20015;-40
2022/12/29 07:35:11;;;;;;;8.65;1.05;;;9.40;99.90;;;;;;5012127;28;20545;-42
2022/12/29 07:37:37;;;;;;;9.90;2.38;;;9.30;99.90;;;;;;5013782;28;20033;-41
2022/12/29 07:40:03;;;;;;;16.48;1.70;;;9.40;99.90;;;;;;5012661;28;20040;-39
2022/12/29 07:42:29;;;;;;;5.65;1.05;;;9.50;99.90;;;;;;5011848;28;20438;-36
2022/12/29 07:44:54;;;;;;;8.88;1.02;;;9.50;99.90;;;;;;5012676;28;20056;-35
2022/12/29 07:47:20;;;;;;;7.30;1.52;;;9.60;99.90;;;;;;5013382;28;20367;-36
2022/12/29 07:49:46;;;;;;;11.05;1.75;;;9.60;99.90;;;;;;5012221;28;20033;-38
2022/12/29 07:52:11;;;;;;;16.70;2.33;;;9.60;99.90;;;;;;4991871;28;20403;-40
2022/12/29 07:54:37;;;;;;;5.65;1.23;;;9.60;99.90;;;;;;5008452;28;20017;-37
2022/12/29 07:57:04;;;;;;;6.63;1.00;;;9.70;99.90;;;;;;5010308;28;20508;-40
2022/12/29 07:59:30;;;;;;;8.90;1.48;;;9.70;99.90;;;;;;5012943;28;20029;-35
2022/12/29 08:01:55;;;;;;;13.05;1.17;;;9.70;99.90;;;;;;5014372;28;20053;-38
2022/12/29 08:04:21;;;;;;;14.60;2.50;;;9.70;99.90;;;;;;5013332;28;20504;-38
2022/12/29 08:06:47;;;;;;;7.00;1.10;;;9.80;99.90;;;;;;5010994;28;20030;-41
2022/12/29 08:09:13;;;;;;;8.90;1.13;;;9.80;99.90;;;;;;5011915;28;20104;-38
2022/12/29 08:11:40;;;;;;;8.38;1.35;;;9.90;99.90;;;;;;5012301;28;20026;-36
2022/12/29 08:14:05;;;;;;;4.05;0.93;;;9.90;99.90;;;;;;5013849;28;20109;-41
2022/12/29 08:16:32;;;;;;;10.75;1.77;;;10.00;99.90;;;;;;5011858;28;20125;-38
2022/12/29 08:18:58;;;;;;;5.18;1.27;;;10.00;99.90;;;;;;5014098;28;20026;-40
2022/12/29 08:21:24;;;;;;;9.13;1.30;;;10.10;99.90;;;;;;5011964;28;20088;-33
2022/12/29 08:23:50;;;;;;;8.88;1.63;;;10.20;99.90;;;;;;5011540;28;20505;-50
2022/12/29 08:26:16;;;;;;;13.23;1.50;;;10.20;99.90;;;;;;5011994;28;20057;-41
2022/12/29 08:28:41;;;;;;;13.05;1.45;;;10.20;99.90;;;;;;5011378;28;20030;-40
2022/12/29 08:31:07;;;;;;;4.22;1.75;;;10.20;99.90;;;;;;5011610;28;20088;-39
2022/12/29 08:33:33;;;;;;;9.20;1.15;;;10.20;99.90;;;;;;5011858;28;20373;-38
2022/12/29 08:36:03;;;;;;;5.20;1.05;;;10.20;99.90;;;;;;5012295;28;20033;-38
2022/12/29 08:38:29;;;;;;;9.85;1.85;;;10.20;99.90;;;;;;5008427;28;20522;-40
2022/12/29 08:40:57;;;;;;;12.68;1.88;;;10.10;99.90;;;;;;5010621;28;20037;-38
2022/12/29 08:43:22;;;;;;;10.68;1.92;;;10.10;99.90;;;;;;5012852;28;20561;-36
2022/12/29 08:45:48;;;;;;;9.52;1.10;;;10.00;99.90;;;;;;5009956;28;20108;-37
2022/12/29 08:48:17;;;;;;;16.45;1.55;;;10.00;99.90;;;;;;5009532;28;20060;-41
2022/12/29 08:50:43;;;;;;;13.35;1.60;;;10.00;99.90;;;;;;4994595;28;20033;-35
2022/12/29 08:53:09;;;;;;;12.85;1.35;;;10.10;99.90;;;;;;5012687;28;20025;-37
2022/12/29 08:55:35;;;;;;;11.05;2.00;;;10.10;99.90;;;;;;5003961;28;20064;-37
2022/12/29 08:58:01;;;;;;;6.00;2.15;;;10.10;99.90;;;;;;5010733;28;20022;-35
2022/12/29 09:00:26;;;;;;;7.47;2.03;;;10.10;99.90;;;;;;5010982;28;20029;-39
2022/12/29 09:02:52;;;;;;;8.98;2.03;;;10.10;99.90;;;;;;5012284;28;20037;-47
2022/12/29 09:05:18;;;;;;;5.45;1.35;;;10.10;99.90;;;;;;5010531;28;20418;-37
2022/12/29 09:07:43;;;;;;;9.55;1.90;;;10.20;99.90;;;;;;5011455;28;20030;-40
2022/12/29 09:10:09;;;;;;;13.07;1.92;;;10.20;99.90;;;;;;5008613;28;20104;-46
2022/12/29 09:12:35;;;;;;;10.55;1.20;;;10.20;99.90;;;;;;5010801;28;20069;-45
2022/12/29 09:15:00;;;;;;;9.48;1.40;;;10.20;99.90;;;;;;5010622;28;20038;-46
2022/12/29 09:17:45;;;;;;;16.45;3.90;;;10.10;99.90;;;;;;4997102;28;20117;-44
2022/12/29 09:20:12;;;;;;;8.57;1.48;;;10.00;99.90;;;;;;5012459;28;20030;-43
2022/12/29 09:22:38;;;;;;;5.93;0.77;;;10.00;99.90;;;;;;5010532;28;20042;-47
2022/12/29 09:25:04;;;;;;;4.10;0.85;;;9.90;99.90;;;;;;5007821;28;20026;-38
2022/12/29 09:27:30;;;;;;;8.07;1.20;;;9.90;99.90;;;;;;5017701;28;20026;-40
2022/12/29 09:29:55;;;;;;;3.45;1.27;;;9.80;99.90;;;;;;5017996;28;20037;-41
2022/12/29 09:32:21;;;;;;;17.48;1.63;;;9.80;99.90;;;;;;5018768;28;20037;-39
2022/12/29 09:34:47;;;;;;;7.85;1.25;;;9.80;99.90;;;;;;5019619;28;20506;-39
2022/12/29 09:37:13;;;;;;;5.47;1.00;;;9.70;99.90;;;;;;5019054;28;20049;-38
2022/12/29 09:39:38;;;;;;;9.05;1.60;;;9.60;99.90;;;;;;5017045;28;20041;-37
2022/12/29 09:42:16;;;;;;;13.07;1.38;;;9.60;99.90;;;;;;5018186;28;20026;-40
2022/12/29 09:44:41;;;;;;;;;;;9.60;99.90;;;;;;5019730;28;20037;-41
2022/12/29 09:47:11;;;;;;;2.40;1.20;;;9.50;99.90;;;;;;5017753;28;20369;-40
2022/12/29 09:50:11;;;;;;;10.15;0.90;;;9.50;99.90;;;;;;5017393;28;20033;-37
2022/12/29 09:52:46;;;;;;;12.13;1.05;;;9.50;99.90;;;;;;5009155;28;20116;-39
2022/12/29 09:55:18;;;;;;;6.70;1.15;;;9.50;99.90;;;;;;5024483;28;20033;-37
2022/12/29 09:57:57;;;;;;;11.05;1.20;;;9.50;99.90;;;;;;5016964;28;20493;-37
2022/12/29 10:00:34;;;;;;;8.07;1.15;;;9.50;99.90;;;;;;5013182;28;20030;-41
2022/12/29 10:03:13;;;;;;;7.20;1.30;;;9.60;99.90;;;;;;5017877;28;20125;-37
2022/12/29 10:06:04;;;;;;;3.75;1.00;;;9.70;99.90;;;;;;5019122;28;20657;-32
2022/12/29 10:08:52;;;;;;;4.22;0.90;;;9.70;99.90;;;;;;5008070;28;20493;-39
2022/12/29 10:11:49;;;;;;;5.75;0.70;;;9.80;99.90;;;;;;5017936;28;20097;-41
2022/12/29 10:14:29;;;;;;;5.10;1.02;;;9.80;99.90;;;;;;5010499;28;20486;-40
2022/12/29 10:17:26;;;;;;;4.95;1.40;;;9.80;99.90;;;;;;4999465;28;20050;-42
2022/12/29 10:20:16;;;;;;;5.20;0.88;;;9.80;99.90;;;;;;5009464;28;20539;-43
2022/12/29 10:23:17;;;;;;;9.30;1.30;;;9.90;99.90;;;;;;5014545;28;20124;-44
2022/12/29 10:25:43;;;;;;;3.78;0.95;;;9.90;99.90;;;;;;4999421;28;20418;-46
2022/12/29 10:28:23;;;;;;;7.57;1.33;;;10.00;99.90;;;;;;5015240;28;20502;-48
2022/12/29 10:30:52;;;;;;;9.27;1.55;;;10.00;99.90;;;;;;5015276;28;20026;-42
2022/12/29 10:33:35;;;;;;;8.65;1.10;;;10.00;99.90;;;;;;5015679;28;20037;-43
2022/12/29 10:36:13;;;;;;;7.15;1.95;;;10.00;99.90;;;;;;5015557;28;20481;-44
2022/12/29 10:39:01;;;;;;;7.20;1.67;;;10.00;99.90;;;;;;5015870;28;20033;-40
2022/12/29 10:41:36;;;;;;;;;;;10.00;99.90;;;;;;5016217;28;20490;-44
2022/12/29 10:44:01;;;;;;;6.28;1.58;;;10.00;99.90;;;;;;5007412;28;19910;-45
2022/12/29 10:46:37;;;;;;;22.00;2.75;;;10.00;99.90;;;;;;5010915;28;20045;-45
2022/12/29 10:49:04;;;;;;;8.52;2.42;;;10.00;99.90;;;;;;5015770;28;20449;-44
2022/12/29 10:51:38;;;;;;;13.50;2.08;;;10.00;99.90;;;;;;5014209;28;20527;-43
2022/12/29 10:54:11;;;;;;;10.75;2.85;;;10.10;99.90;;;;;;5006585;28;20022;-43
2022/12/29 10:56:44;;;;;;;14.05;1.75;;;10.10;99.90;;;;;;5012684;28;20117;-42
2022/12/29 10:59:21;;;;;;;7.15;1.77;;;10.00;99.90;;;;;;5008602;28;20386;-48
2022/12/29 11:02:11;;;;;;;9.23;1.70;;;10.00;99.90;;;;;;5012982;28;20022;-46
2022/12/29 11:05:13;;;;;;;18.98;2.28;;;10.10;99.90;;;;;;5012600;28;20058;-43
2022/12/29 11:07:39;;;;;;;11.65;2.22;;;10.10;99.90;;;;;;5011524;28;20025;-47
2022/12/29 11:10:32;;;;;;;12.23;1.98;;;10.20;99.90;;;;;;5013216;28;20022;-53
2022/12/29 11:13:04;;;;;;;16.45;2.15;;;10.10;99.90;;;;;;5006136;28;20497;-42
2022/12/29 11:15:43;;;;;;;10.98;2.28;;;10.20;99.90;;;;;;5013488;28;20534;-43
2022/12/29 11:18:21;;;;;;;13.25;2.15;;;10.30;99.90;;;;;;5007638;28;20042;-42
2022/12/29 11:20:48;;;;;;;16.65;2.20;;;10.30;99.90;;;;;;5006790;28;20080;-41
2022/12/29 11:23:30;;;;;;;12.35;2.40;;;10.50;99.90;;;;;;5012505;28;20469;-44
2022/12/29 11:26:10;;;;;;;12.27;2.42;;;10.50;99.90;;;;;;5014570;28;20509;-45
2022/12/29 11:28:37;;;;;;;10.48;2.38;;;10.70;99.90;;;;;;5008452;28;20033;-42
2022/12/29 11:31:04;;;;;;;17.63;2.38;;;10.80;99.90;;;;;;5009050;28;20033;-41
2022/12/29 11:33:31;;;;;;;8.97;1.73;;;10.90;99.90;;;;;;5006358;28;20489;-42
2022/12/29 11:36:01;;;;;;;14.97;2.33;;;11.00;99.90;;;;;;5010690;28;20030;-46
2022/12/29 11:38:35;;;;;;;20.10;2.53;;;11.10;99.90;;;;;;5008983;28;20292;-43
2022/12/29 11:41:02;;;;;;;17.92;3.55;;;11.20;99.90;;;;;;5012883;28;20501;-37
2022/12/29 11:43:35;;;;;;;40.55;14.05;;;11.20;99.90;;;;;;5014040;28;20030;-42
2022/12/29 11:46:04;;;;;;;21.20;4.07;;;11.10;99.90;;;;;;5014732;28;20041;-45
2022/12/29 11:48:39;;;;;;;19.13;2.42;;;11.10;99.90;;;;;;5000576;28;20072;-43
2022/12/29 11:51:05;;;;;;;12.57;2.67;;;11.10;99.90;;;;;;5011277;28;20398;-45
2022/12/29 11:53:43;;;;;;;21.67;2.97;;;11.00;99.90;;;;;;5009883;28;20072;-43
2022/12/29 11:56:14;;;;;;;19.02;2.80;;;10.90;99.90;;;;;;5013450;28;20030;-41
2022/12/29 11:58:40;;;;;;;13.77;2.85;;;10.80;99.90;;;;;;5009233;28;21109;-47
2022/12/29 12:01:24;;;;;;;16.95;2.45;;;10.70;99.90;;;;;;5011017;28;20113;-47
2022/12/29 12:04:05;;;;;;;18.55;1.90;;;10.70;99.90;;;;;;5013342;28;20409;-47
2022/12/29 12:06:33;;;;;;;17.02;2.20;;;10.70;99.90;;;;;;5010987;28;20117;-45
2022/12/29 12:09:24;;;;;;;16.85;2.78;;;10.70;99.90;;;;;;5004806;28;20856;-41
2022/12/29 12:11:53;;;;;;;13.23;2.10;;;10.70;99.90;;;;;;5008278;28;20032;-49
2022/12/29 12:14:48;;;;;;;12.07;1.80;;;10.60;99.90;;;;;;5000651;28;20034;-41
2022/12/29 12:17:38;;;;;;;13.07;2.92;;;10.60;99.90;;;;;;5005433;28;20058;-44
2022/12/29 12:20:45;;;;;;;29.05;2.72;;;10.60;99.90;;;;;;4994928;28;20074;-46
2022/12/29 12:23:18;;;;;;;8.95;2.20;;;10.50;99.90;;;;;;5001169;28;20563;-44
2022/12/29 12:26:10;;;;;;;10.55;2.20;;;10.40;99.90;;;;;;5007913;28;20033;-40
2022/12/29 12:28:38;;;;;;;16.33;3.40;;;10.50;99.90;;;;;;5008304;28;20382;-47
2022/12/29 12:31:14;;;;;;;17.58;3.25;;;10.50;99.90;;;;;;5006027;28;20457;-43
2022/12/29 12:33:44;;;;;;;15.82;3.08;;;10.50;99.90;;;;;;5004323;28;20429;-42
2022/12/29 12:36:41;;;;;;;10.10;1.75;;;10.50;99.90;;;;;;5005419;28;20022;-48
2022/12/29 12:39:18;;;;;;;19.47;2.43;;;10.50;99.90;;;;;;5008594;28;20030;-44
2022/12/29 12:42:22;;;;;;;16.25;2.95;;;10.60;99.90;;;;;;5013616;28;20744;-49
2022/12/29 12:45:25;;;;;;;8.48;1.60;;;10.80;99.90;;;;;;5012822;28;20410;-46
2022/12/29 12:48:19;;;;;;;15.50;2.03;;;10.80;99.90;;;;;;5008881;28;20030;-50
2022/12/29 12:50:57;;;;;;;8.07;1.70;;;11.00;99.90;;;;;;5002285;28;20060;-48
2022/12/29 12:53:29;;;;;;;;;;;11.10;99.90;;;;;;5012489;28;20041;-45
2022/12/29 12:56:33;;;;;;;19.15;1.45;;;11.20;99.90;;;;;;5012684;28;19963;-43
2022/12/29 12:59:23;;;;;;;12.73;1.80;;;11.10;99.90;;;;;;4994027;28;20026;-45
2022/12/29 13:02:10;;;;;;;14.63;2.42;;;11.10;99.90;;;;;;5003693;28;20464;-41
2022/12/29 13:04:47;;;;;;;20.80;2.20;;;11.10;99.90;;;;;;5005022;28;20462;-46
2022/12/29 13:07:14;;;;;;;11.57;1.50;;;11.00;99.90;;;;;;4995434;28;20462;-53
2022/12/29 13:10:08;;;;;;;17.85;2.03;;;11.00;99.90;;;;;;4998185;28;20037;-39
2022/12/29 13:12:46;;;;;;;12.77;2.08;;;11.00;99.90;;;;;;4998956;28;20049;-47
2022/12/29 13:15:41;;;;;;;16.45;2.38;;;11.10;99.90;;;;;;5007298;28;20538;-46
2022/12/29 13:18:09;;;;;;;7.82;1.60;;;11.00;99.90;;;;;;4998095;28;20034;-36
2022/12/29 13:20:43;;;;;;;16.75;1.65;;;11.00;99.90;;;;;;5011476;28;20026;-36
2022/12/29 13:23:15;;;;;;;8.27;1.58;;;11.00;99.90;;;;;;5004741;28;20038;-40
2022/12/29 13:26:02;;;;;;;10.23;1.45;;;11.00;99.90;;;;;;5004366;28;20505;-42
2022/12/29 13:28:54;;;;;;;12.20;2.72;;;10.90;99.90;;;;;;4994404;28;20397;-41
2022/12/29 13:31:30;;;;;;;13.23;1.83;;;10.90;99.90;;;;;;5005206;28;20030;-41
2022/12/29 13:34:17;;;;;;;11.90;1.77;;;10.90;99.90;;;;;;5012714;28;20508;-40
2022/12/29 13:36:48;;;;;;;12.82;2.38;;;10.90;99.90;;;;;;5012052;28;20030;-39
2022/12/29 13:39:17;;;;;;;16.10;1.98;;;10.90;99.90;;;;;;5011115;28;20033;-42
2022/12/29 13:41:48;;;;;;;10.60;2.30;;;10.90;99.90;;;;;;5006620;28;20089;-42
2022/12/29 13:44:21;;;;;;;10.15;2.03;;;10.90;99.90;;;;;;5010266;28;20076;-38
2022/12/29 13:46:48;;;;;;;10.15;2.00;;;10.90;99.90;;;;;;5011799;28;20470;-39